sensor_id;sensor_type;location;lat;lon;timestamp;pressure;altitude;pressure_sealevel;temperature;humidity
39699;BME280;25372;50.582;12.250;2023-07-20T00:05:22;99395.31;;;15.37;89.92
39699;BME280;25372;50.582;12.250;2023-07-20T00:15:45;99400.34;;;15.50;89.00
39699;BME280;25372;50.582;12.250;2023-07-20T00:26:06;99389.34;;;15.35;90.64
39699;BME280;25372;50.582;12.250;2023-07-20T00:36:28;99397.56;;;15.42;90.89
39699;BME280;25372;50.582;12.250;2023-07-20T00:46:49;99397.44;;;15.33;89.50
39699;BME280;25372;50.582;12.250;2023-07-20T00:57:13;99368.63;;;15.10;90.22
39699;BME280;25372;50.582;12.250;2023-07-20T01:07:37;99393.81;;;15.34;89.73
39699;BME280;25372;50.582;12.250;2023-07-20T01:18:00;99404.38;;;15.15;90.57
39699;BME280;25372;50.582;12.250;2023-07-20T01:28:37;99412.19;;;15.26;89.91
39699;BME280;25372;50.582;12.250;2023-07-20T01:39:02;99412.09;;;14.77;90.73
39699;BME280;25372;50.582;12.250;2023-07-20T01:49:23;99408.06;;;14.73;90.52
39699;BME280;25372;50.582;12.250;2023-07-20T01:59:46;99412.13;;;14.46;93.10
39699;BME280;25372;50.582;12.250;2023-07-20T02:10:07;99410.47;;;14.54;92.55
39699;BME280;25372;50.582;12.250;2023-07-20T02:20:30;99404.25;;;14.56;92.36
39699;BME280;25372;50.582;12.250;2023-07-20T02:30:51;99409.88;;;14.72;91.93
39699;BME280;25372;50.582;12.250;2023-07-20T02:41:13;99410.25;;;14.67;91.47
39699;BME280;25372;50.582;12.250;2023-07-20T02:51:34;99418.72;;;14.61;91.88
39699;BME280;25372;50.582;12.250;2023-07-20T03:01:56;99427.28;;;14.53;91.67
39699;BME280;25372;50.582;12.250;2023-07-20T03:12:18;99432.94;;;14.39;92.70
39699;BME280;25372;50.582;12.250;2023-07-20T03:22:40;99446.63;;;14.54;91.49
39699;BME280;25372;50.582;12.250;2023-07-20T03:33:02;99446.47;;;14.77;92.03
39699;BME280;25372;50.582;12.250;2023-07-20T03:43:27;99453.09;;;14.71;89.78
39699;BME280;25372;50.582;12.250;2023-07-20T03:53:48;99447.91;;;14.91;90.00
39699;BME280;25372;50.582;12.250;2023-07-20T04:04:11;99452.22;;;15.02;89.15
39699;BME280;25372;50.582;12.250;2023-07-20T04:14:31;99447.66;;;15.23;88.02
39699;BME280;25372;50.582;12.250;2023-07-20T04:24:54;99453.81;;;15.34;87.65
39699;BME280;25372;50.582;12.250;2023-07-20T04:35:18;99460.63;;;15.36;88.75
39699;BME280;25372;50.582;12.250;2023-07-20T04:45:43;99450.06;;;15.36;88.06
39699;BME280;25372;50.582;12.250;2023-07-20T04:56:04;99461.34;;;15.68;87.87
39699;BME280;25372;50.582;12.250;2023-07-20T05:06:26;99461.81;;;16.31;85.04
39699;BME280;25372;50.582;12.250;2023-07-20T05:16:47;99466.03;;;16.61;83.00
39699;BME280;25372;50.582;12.250;2023-07-20T05:27:10;99468.34;;;16.74;81.54
39699;BME280;25372;50.582;12.250;2023-07-20T05:37:31;99459.28;;;19.84;69.38
39699;BME280;25372;50.582;12.250;2023-07-20T05:47:53;99465.28;;;17.98;74.65
39699;BME280;25372;50.582;12.250;2023-07-20T05:58:14;99478.34;;;17.37;79.08
39699;BME280;25372;50.582;12.250;2023-07-20T06:08:36;99485.56;;;16.98;80.00
39699;BME280;25372;50.582;12.250;2023-07-20T06:18:59;99507.16;;;16.08;85.41
39699;BME280;25372;50.582;12.250;2023-07-20T06:29:22;99500.09;;;15.08;93.75
39699;BME280;25372;50.582;12.250;2023-07-20T06:39:44;99502.63;;;15.10;94.77
39699;BME280;25372;50.582;12.250;2023-07-20T06:50:07;99524.69;;;15.40;95.09
39699;BME280;25372;50.582;12.250;2023-07-20T07:00:29;99525.69;;;15.59;94.14
39699;BME280;25372;50.582;12.250;2023-07-20T07:10:52;99531.16;;;15.77;92.57
39699;BME280;25372;50.582;12.250;2023-07-20T07:21:13;99522.09;;;15.99;90.69
39699;BME280;25372;50.582;12.250;2023-07-20T07:31:35;99534.91;;;16.71;89.66
39699;BME280;25372;50.582;12.250;2023-07-20T07:41:57;99530.44;;;17.56;86.44
39699;BME280;25372;50.582;12.250;2023-07-20T07:52:20;99521.28;;;17.68;82.37
39699;BME280;25372;50.582;12.250;2023-07-20T08:02:41;99519.47;;;18.05;81.74
39699;BME280;25372;50.582;12.250;2023-07-20T08:13:04;99532.38;;;19.06;78.59
39699;BME280;25372;50.582;12.250;2023-07-20T08:23:26;99526.41;;;18.24;75.50
39699;BME280;25372;50.582;12.250;2023-07-20T08:33:49;99523.72;;;17.98;78.29
39699;BME280;25372;50.582;12.250;2023-07-20T08:44:10;99502.91;;;18.64;74.99
39699;BME280;25372;50.582;12.250;2023-07-20T08:54:34;99515.75;;;20.30;65.99
39699;BME280;25372;50.582;12.250;2023-07-20T09:04:55;99539.50;;;21.13;61.33
39699;BME280;25372;50.582;12.250;2023-07-20T09:15:19;99529.50;;;22.16;57.99
39699;BME280;25372;50.582;12.250;2023-07-20T09:25:40;99518.50;;;23.46;51.65
39699;BME280;25372;50.582;12.250;2023-07-20T09:36:03;99515.94;;;23.60;56.90
39699;BME280;25372;50.582;12.250;2023-07-20T09:46:41;99523.41;;;22.61;57.55
39699;BME280;25372;50.582;12.250;2023-07-20T09:57:03;99547.81;;;19.02;71.17
39699;BME280;25372;50.582;12.250;2023-07-20T10:07:27;99551.97;;;17.35;83.04
39699;BME280;25372;50.582;12.250;2023-07-20T10:17:58;99554.31;;;17.38;80.57
39699;BME280;25372;50.582;12.250;2023-07-20T10:28:21;99539.09;;;18.57;75.89
39699;BME280;25372;50.582;12.250;2023-07-20T10:38:53;99531.91;;;19.19;69.41
39699;BME280;25372;50.582;12.250;2023-07-20T10:49:15;99530.94;;;17.87;72.84
39699;BME280;25372;50.582;12.250;2023-07-20T10:59:37;99547.25;;;17.28;79.09
39699;BME280;25372;50.582;12.250;2023-07-20T11:10:12;99543.84;;;16.03;86.92
39699;BME280;25372;50.582;12.250;2023-07-20T11:20:34;99541.53;;;17.05;86.68
39699;BME280;25372;50.582;12.250;2023-07-20T11:30:55;99533.97;;;17.28;80.56
39699;BME280;25372;50.582;12.250;2023-07-20T11:41:18;99535.03;;;18.44;84.22
39699;BME280;25372;50.582;12.250;2023-07-20T11:51:40;99532.66;;;19.37;76.00
39699;BME280;25372;50.582;12.250;2023-07-20T12:02:02;99532.81;;;18.93;77.12
39699;BME280;25372;50.582;12.250;2023-07-20T12:12:25;99542.88;;;17.37;84.70
39699;BME280;25372;50.582;12.250;2023-07-20T12:22:47;99550.44;;;16.66;88.37
39699;BME280;25372;50.582;12.250;2023-07-20T12:33:08;99561.16;;;16.64;89.46
39699;BME280;25372;50.582;12.250;2023-07-20T12:43:30;99568.75;;;16.40;94.26
39699;BME280;25372;50.582;12.250;2023-07-20T12:53:51;99593.03;;;16.35;90.22
39699;BME280;25372;50.582;12.250;2023-07-20T13:04:13;99585.56;;;16.68;89.91
39699;BME280;25372;50.582;12.250;2023-07-20T13:14:34;99564.06;;;16.71;85.30
39699;BME280;25372;50.582;12.250;2023-07-20T13:24:56;99547.25;;;17.00;83.60
39699;BME280;25372;50.582;12.250;2023-07-20T13:35:17;99535.75;;;17.56;83.77
39699;BME280;25372;50.582;12.250;2023-07-20T13:45:40;99538.19;;;17.85;79.48
39699;BME280;25372;50.582;12.250;2023-07-20T13:56:02;99547.06;;;18.30;78.92
39699;BME280;25372;50.582;12.250;2023-07-20T14:06:25;99551.38;;;18.58;76.59
39699;BME280;25372;50.582;12.250;2023-07-20T14:16:46;99548.41;;;18.35;75.69
39699;BME280;25372;50.582;12.250;2023-07-20T14:27:09;99547.28;;;18.98;71.17
39699;BME280;25372;50.582;12.250;2023-07-20T14:37:31;99562.81;;;20.62;65.24
39699;BME280;25372;50.582;12.250;2023-07-20T14:47:56;99573.47;;;20.79;64.10
39699;BME280;25372;50.582;12.250;2023-07-20T14:58:17;99550.78;;;20.91;64.12
39699;BME280;25372;50.582;12.250;2023-07-20T15:08:40;99543.00;;;21.45;61.79
39699;BME280;25372;50.582;12.250;2023-07-20T15:19:01;99531.50;;;20.64;65.83
39699;BME280;25372;50.582;12.250;2023-07-20T15:29:23;99535.56;;;19.94;67.79
39699;BME280;25372;50.582;12.250;2023-07-20T15:39:48;99532.06;;;19.85;68.54
39699;BME280;25372;50.582;12.250;2023-07-20T15:50:11;99513.56;;;20.33;63.21
39699;BME280;25372;50.582;12.250;2023-07-20T16:00:32;99516.03;;;20.35;63.87
39699;BME280;25372;50.582;12.250;2023-07-20T16:10:55;99520.13;;;20.79;61.85
39699;BME280;25372;50.582;12.250;2023-07-20T16:21:17;99525.25;;;20.16;59.79
39699;BME280;25372;50.582;12.250;2023-07-20T16:31:39;99521.81;;;19.39;64.42
39699;BME280;25372;50.582;12.250;2023-07-20T16:41:59;99509.59;;;20.12;62.62
39699;BME280;25372;50.582;12.250;2023-07-20T16:52:24;99508.44;;;20.80;60.84
39699;BME280;25372;50.582;12.250;2023-07-20T17:02:47;99497.56;;;20.33;62.14
39699;BME280;25372;50.582;12.250;2023-07-20T17:13:09;99509.19;;;20.57;60.20
39699;BME280;25372;50.582;12.250;2023-07-20T17:23:31;99511.25;;;20.05;61.32
39699;BME280;25372;50.582;12.250;2023-07-20T17:33:53;99503.69;;;18.91;63.32
39699;BME280;25372;50.582;12.250;2023-07-20T17:44:14;99504.94;;;19.13;61.38
39699;BME280;25372;50.582;12.250;2023-07-20T17:54:36;99500.66;;;18.86;61.70
39699;BME280;25372;50.582;12.250;2023-07-20T18:04:57;99497.66;;;18.46;67.78
39699;BME280;25372;50.582;12.250;2023-07-20T18:15:19;99483.34;;;18.12;64.79
39699;BME280;25372;50.582;12.250;2023-07-20T18:25:41;99482.13;;;17.52;68.14
39699;BME280;25372;50.582;12.250;2023-07-20T18:36:04;99487.03;;;17.11;69.52
39699;BME280;25372;50.582;12.250;2023-07-20T18:46:26;99488.72;;;16.74;72.34
39699;BME280;25372;50.582;12.250;2023-07-20T18:56:48;99493.88;;;16.38;70.64
39699;BME280;25372;50.582;12.250;2023-07-20T19:07:08;99488.22;;;16.03;73.76
39699;BME280;25372;50.582;12.250;2023-07-20T19:17:31;99505.06;;;15.82;74.67
39699;BME280;25372;50.582;12.250;2023-07-20T19:27:52;99528.06;;;15.62;76.02
39699;BME280;25372;50.582;12.250;2023-07-20T19:38:21;99536.25;;;15.39;77.58
39699;BME280;25372;50.582;12.250;2023-07-20T19:48:42;99534.88;;;15.55;75.66
39699;BME280;25372;50.582;12.250;2023-07-20T19:59:05;99542.97;;;15.02;76.53
39699;BME280;25372;50.582;12.250;2023-07-20T20:09:26;99541.00;;;14.94;78.53
39699;BME280;25372;50.582;12.250;2023-07-20T20:19:48;99549.19;;;14.70;78.22
39699;BME280;25372;50.582;12.250;2023-07-20T20:30:10;99546.09;;;14.65;79.47
39699;BME280;25372;50.582;12.250;2023-07-20T20:40:33;99556.75;;;14.53;80.46
39699;BME280;25372;50.582;12.250;2023-07-20T20:50:54;99554.91;;;14.44;80.46
39699;BME280;25372;50.582;12.250;2023-07-20T21:01:16;99551.38;;;14.34;80.94
39699;BME280;25372;50.582;12.250;2023-07-20T21:11:37;99559.53;;;14.09;81.82
39699;BME280;25372;50.582;12.250;2023-07-20T21:21:59;99552.41;;;14.10;82.26
39699;BME280;25372;50.582;12.250;2023-07-20T21:32:20;99564.47;;;14.03;82.10
39699;BME280;25372;50.582;12.250;2023-07-20T21:42:42;99566.06;;;13.94;81.31
39699;BME280;25372;50.582;12.250;2023-07-20T21:53:03;99563.72;;;14.12;79.46
39699;BME280;25372;50.582;12.250;2023-07-20T22:03:25;99560.16;;;14.23;78.43
39699;BME280;25372;50.582;12.250;2023-07-20T22:13:46;99558.91;;;14.38;79.00
39699;BME280;25372;50.582;12.250;2023-07-20T22:24:09;99551.09;;;14.37;78.36
39699;BME280;25372;50.582;12.250;2023-07-20T22:34:31;99543.03;;;14.17;76.46
39699;BME280;25372;50.582;12.250;2023-07-20T22:44:55;99543.03;;;13.96;78.33
39699;BME280;25372;50.582;12.250;2023-07-20T22:55:16;99545.84;;;13.83;82.51
39699;BME280;25372;50.582;12.250;2023-07-20T23:05:38;99548.13;;;13.76;79.55
39699;BME280;25372;50.582;12.250;2023-07-20T23:15:59;99543.63;;;13.88;78.10
39699;BME280;25372;50.582;12.250;2023-07-20T23:26:21;99533.56;;;13.93;80.63
39699;BME280;25372;50.582;12.250;2023-07-20T23:36:42;99537.06;;;13.82;83.44
39699;BME280;25372;50.582;12.250;2023-07-20T23:47:05;99529.13;;;13.61;83.47
39699;BME280;25372;50.582;12.250;2023-07-20T23:57:29;99535.13;;;13.40;85.85
